Time;durP1;ratioP1;P1;durP2;ratioP2;P2;SDS_P1;SDS_P2;PMS_P1;PMS_P2;Temp;Humidity;BMP_temperature;BMP_pressure;BME280_temperature;BME280_humidity;BME280_pressure;Samples;Min_cycle;Max_cycle;Signal;HPM_P1;HPM_P2
2021/12/01 00:00:55;;;;;;;0.40;0.10;;;5.00;99.90;;;;;;5136358;28;20484;-62
2021/12/01 00:03:23;;;;;;;0.30;0.10;;;5.00;99.90;;;;;;5136168;28;20806;-62
2021/12/01 00:05:52;;;;;;;0.30;0.10;;;4.90;99.90;;;;;;5136810;28;20750;-62
2021/12/01 00:08:21;;;;;;;0.30;0.20;;;4.90;99.90;;;;;;5138434;27;20462;-61
2021/12/01 00:10:52;;;;;;;0.50;0.20;;;4.80;99.90;;;;;;5140977;27;20483;-62
2021/12/01 00:13:21;;;;;;;0.30;0.13;;;4.80;99.90;;;;;;5141075;27;20503;-62
2021/12/01 00:15:50;;;;;;;0.40;0.20;;;4.80;99.90;;;;;;5140560;27;20516;-62
2021/12/01 00:18:18;;;;;;;0.50;0.17;;;4.80;99.90;;;;;;5139079;27;20482;-62
2021/12/01 00:20:46;;;;;;;0.33;0.10;;;4.80;99.90;;;;;;5140050;27;20465;-61
2021/12/01 00:23:14;;;;;;;0.30;0.20;;;4.70;99.90;;;;;;5139023;27;20476;-61
2021/12/01 00:25:43;;;;;;;0.30;0.10;;;4.70;99.90;;;;;;5139266;27;20472;-61
2021/12/01 00:28:14;;;;;;;0.50;0.20;;;4.70;99.90;;;;;;5139066;27;20483;-61
2021/12/01 00:30:42;;;;;;;2.40;0.20;;;4.70;99.90;;;;;;5137909;27;20436;-61
2021/12/01 00:33:17;;;;;;;0.47;0.20;;;4.60;99.90;;;;;;5116868;27;20499;-62
2021/12/01 00:35:45;;;;;;;0.40;0.20;;;4.60;99.90;;;;;;5117630;28;20473;-62
2021/12/01 00:38:12;;;;;;;0.30;0.20;;;4.60;99.90;;;;;;5116708;28;20482;-62
2021/12/01 00:40:40;;;;;;;0.30;0.17;;;4.50;99.90;;;;;;5116005;28;20788;-62
2021/12/01 00:43:15;;;;;;;0.30;0.10;;;4.50;99.90;;;;;;5117240;28;20734;-62
2021/12/01 00:45:49;;;;;;;0.30;0.10;;;4.50;99.90;;;;;;5118762;28;20706;-62
2021/12/01 00:48:17;;;;;;;0.50;0.20;;;4.50;99.90;;;;;;5118154;28;20466;-62
2021/12/01 00:50:44;;;;;;;0.37;0.20;;;4.60;99.90;;;;;;5118315;28;20423;-62
2021/12/01 00:53:12;;;;;;;0.30;0.10;;;4.60;99.90;;;;;;5118543;28;20816;-62
2021/12/01 00:55:41;;;;;;;0.30;0.10;;;4.60;99.90;;;;;;5119397;28;20714;-62
2021/12/01 00:58:11;;;;;;;0.30;0.10;;;4.60;99.90;;;;;;5118882;28;20481;-63
2021/12/01 01:00:39;;;;;;;0.30;0.20;;;4.60;99.90;;;;;;5118121;28;20502;-62
2021/12/01 01:03:08;;;;;;;0.30;0.20;;;4.60;99.90;;;;;;5117346;28;20490;-62
2021/12/01 01:05:36;;;;;;;0.40;0.10;;;4.60;99.90;;;;;;5117081;28;20519;-63
2021/12/01 01:08:06;;;;;;;0.20;0.10;;;4.60;99.90;;;;;;5116666;28;20517;-63
2021/12/01 01:11:08;;;;;;;0.30;0.10;;;4.60;99.90;;;;;;5116320;28;20411;-62
2021/12/01 01:16:25;;;;;;;0.30;0.10;;;4.70;99.90;;;;;;5117374;28;20415;-63
2021/12/01 01:18:56;;;;;;;0.40;0.20;;;4.70;99.90;;;;;;5117838;28;20451;-63
2021/12/01 01:21:26;;;;;;;0.57;0.20;;;4.70;99.90;;;;;;5117958;28;20441;-62
2021/12/01 01:23:53;;;;;;;0.30;0.17;;;4.70;99.90;;;;;;5117014;28;20510;-63
2021/12/01 01:26:22;;;;;;;0.30;0.10;;;4.70;99.90;;;;;;5116257;28;20441;-62
2021/12/01 01:28:51;;;;;;;0.30;0.10;;;4.70;99.90;;;;;;5116845;28;20427;-62
2021/12/01 01:31:20;;;;;;;0.40;0.20;;;4.70;99.90;;;;;;5116379;28;20452;-62
2021/12/01 01:33:47;;;;;;;0.40;0.20;;;4.70;99.90;;;;;;5135913;27;20510;-62
2021/12/01 01:36:15;;;;;;;0.50;0.20;;;4.70;99.90;;;;;;5137303;27;20451;-62
2021/12/01 01:38:43;;;;;;;0.40;0.20;;;4.80;99.90;;;;;;5137697;27;20757;-62
2021/12/01 01:41:12;;;;;;;0.30;0.10;;;4.80;99.90;;;;;;5139125;27;20440;-62
2021/12/01 01:43:41;;;;;;;0.40;0.20;;;4.80;99.90;;;;;;5138782;27;20804;-63
2021/12/01 01:46:10;;;;;;;0.30;0.20;;;4.80;99.90;;;;;;5137385;27;20451;-63
2021/12/01 01:48:47;;;;;;;0.80;0.20;;;4.80;99.90;;;;;;5137049;27;20451;-62
2021/12/01 01:51:16;;;;;;;0.40;0.20;;;4.80;99.90;;;;;;5137900;27;20420;-62
2021/12/01 01:53:44;;;;;;;0.53;0.30;;;4.80;99.90;;;;;;5137526;27;20514;-63
2021/12/01 01:56:12;;;;;;;2.20;0.30;;;4.80;99.90;;;;;;5137469;27;20422;-62
2021/12/01 01:58:39;;;;;;;0.40;0.20;;;4.90;99.90;;;;;;5137495;27;20883;-63
2021/12/01 02:01:13;;;;;;;0.27;0.13;;;4.80;99.90;;;;;;5137877;27;20415;-62
2021/12/01 02:03:43;;;;;;;0.40;0.20;;;4.90;99.90;;;;;;5137290;27;20448;-62
2021/12/01 02:06:12;;;;;;;0.40;0.10;;;4.90;99.90;;;;;;5136562;27;20446;-63
2021/12/01 02:08:41;;;;;;;0.30;0.20;;;4.80;99.90;;;;;;5135972;27;20452;-63
2021/12/01 02:11:12;;;;;;;0.30;0.20;;;4.80;99.90;;;;;;5136204;27;20440;-62
2021/12/01 02:13:40;;;;;;;0.40;0.23;;;4.90;99.90;;;;;;5136320;27;20487;-63
2021/12/01 02:16:10;;;;;;;0.30;0.20;;;4.90;99.90;;;;;;5137421;27;20493;-63
2021/12/01 02:18:39;;;;;;;0.60;0.27;;;4.90;99.90;;;;;;5137076;27;20455;-63
2021/12/01 02:21:11;;;;;;;0.50;0.20;;;4.90;99.90;;;;;;5137424;27;20498;-62
2021/12/01 02:23:41;;;;;;;0.40;0.20;;;4.90;99.90;;;;;;5137567;27;20546;-63
2021/12/01 02:26:09;;;;;;;0.30;0.20;;;4.90;99.90;;;;;;5137541;27;20809;-62
2021/12/01 02:28:38;;;;;;;0.30;0.20;;;4.90;99.90;;;;;;5137131;27;20430;-62
2021/12/01 02:31:05;;;;;;;0.40;0.20;;;4.90;99.90;;;;;;5136743;27;20440;-63
2021/12/01 02:33:33;;;;;;;0.40;0.20;;;4.90;99.90;;;;;;5135907;27;20524;-62
2021/12/01 02:36:00;;;;;;;0.70;0.20;;;5.00;99.90;;;;;;5137922;27;20755;-62
2021/12/01 02:38:29;;;;;;;0.40;0.27;;;5.00;99.90;;;;;;5137339;27;20747;-62
2021/12/01 02:40:57;;;;;;;0.50;0.20;;;5.00;99.90;;;;;;5137546;27;20419;-63
2021/12/01 02:43:24;;;;;;;0.50;0.20;;;5.00;99.90;;;;;;5138649;27;20444;-63
2021/12/01 02:45:54;;;;;;;0.93;0.20;;;5.00;99.90;;;;;;5137838;27;20428;-62
2021/12/01 02:48:22;;;;;;;0.30;0.13;;;5.00;99.90;;;;;;5137001;27;20534;-62
2021/12/01 02:50:51;;;;;;;0.30;0.20;;;5.00;99.90;;;;;;5137713;27;20444;-62
2021/12/01 02:53:21;;;;;;;0.30;0.20;;;5.00;99.90;;;;;;5138087;27;20483;-62
2021/12/01 02:55:57;;;;;;;0.40;0.20;;;5.00;99.90;;;;;;5136906;27;20771;-62
2021/12/01 02:58:25;;;;;;;0.30;0.10;;;5.10;99.90;;;;;;5136026;27;20451;-62
2021/12/01 03:00:57;;;;;;;0.40;0.20;;;5.00;99.90;;;;;;5136571;27;20484;-62
2021/12/01 03:03:25;;;;;;;0.30;0.10;;;5.10;99.90;;;;;;5136470;27;20448;-62
2021/12/01 03:05:53;;;;;;;0.40;0.20;;;5.10;99.90;;;;;;5137100;27;20443;-62
2021/12/01 03:08:21;;;;;;;0.30;0.10;;;5.10;99.90;;;;;;5136200;27;20460;-62
2021/12/01 03:10:51;;;;;;;0.30;0.10;;;5.10;99.90;;;;;;5136791;27;20864;-62
2021/12/01 03:13:21;;;;;;;0.43;0.20;;;5.10;99.90;;;;;;5137076;27;20488;-62
2021/12/01 03:15:49;;;;;;;0.40;0.20;;;5.10;99.90;;;;;;5137536;27;20440;-62
2021/12/01 03:18:17;;;;;;;0.43;0.20;;;5.10;99.90;;;;;;5137042;27;20426;-62
2021/12/01 03:20:46;;;;;;;0.40;0.20;;;5.10;99.90;;;;;;5136927;27;20708;-62
2021/12/01 03:23:14;;;;;;;0.30;0.10;;;5.10;99.90;;;;;;5137553;27;20444;-62
2021/12/01 03:25:42;;;;;;;3.67;0.10;;;5.10;99.90;;;;;;5137108;27;20440;-62
2021/12/01 03:28:09;;;;;;;0.40;0.20;;;5.10;99.90;;;;;;5136336;27;20460;-62
2021/12/01 03:30:39;;;;;;;0.30;0.13;;;5.20;99.90;;;;;;5136699;27;20516;-62
2021/12/01 03:33:10;;;;;;;0.50;0.20;;;5.20;99.90;;;;;;5136773;27;20751;-62
2021/12/01 03:35:39;;;;;;;0.30;0.10;;;5.20;99.90;;;;;;5137270;27;20887;-62
2021/12/01 03:38:07;;;;;;;0.40;0.20;;;5.20;99.90;;;;;;5137162;27;20455;-61
2021/12/01 03:40:35;;;;;;;0.40;0.20;;;5.20;99.90;;;;;;5136256;27;20448;-62
2021/12/01 03:43:03;;;;;;;0.30;0.20;;;5.20;99.90;;;;;;5135384;27;20505;-62
2021/12/01 03:45:30;;;;;;;0.40;0.13;;;5.20;99.90;;;;;;5136307;27;20751;-62
2021/12/01 03:47:59;;;;;;;0.60;0.20;;;5.20;99.90;;;;;;5136149;27;20451;-62
2021/12/01 03:50:27;;;;;;;0.40;0.20;;;5.20;99.90;;;;;;5136315;27;20467;-62
2021/12/01 03:52:54;;;;;;;0.50;0.30;;;5.20;99.90;;;;;;5136225;27;20502;-61
2021/12/01 03:55:22;;;;;;;0.47;0.20;;;5.30;99.90;;;;;;5136764;27;20870;-63
2021/12/01 03:57:49;;;;;;;0.40;0.20;;;5.30;99.90;;;;;;5137192;27;20455;-62
2021/12/01 04:00:19;;;;;;;0.50;0.20;;;5.30;99.90;;;;;;5136519;27;20444;-62
2021/12/01 04:02:47;;;;;;;0.37;0.20;;;5.30;99.90;;;;;;5137150;27;20775;-62
2021/12/01 04:05:17;;;;;;;0.40;0.20;;;5.30;99.90;;;;;;5137105;28;20453;-62
2021/12/01 04:07:44;;;;;;;0.50;0.20;;;5.30;99.90;;;;;;5136305;28;20459;-62
2021/12/01 04:10:15;;;;;;;0.40;0.20;;;5.30;99.90;;;;;;5136675;28;20527;-62
2021/12/01 04:12:43;;;;;;;0.33;0.20;;;5.30;99.90;;;;;;5136229;28;20512;-62
2021/12/01 04:15:12;;;;;;;0.40;0.20;;;5.30;99.90;;;;;;5136910;28;20447;-62
2021/12/01 04:17:40;;;;;;;0.40;0.20;;;5.30;99.90;;;;;;5136470;28;20509;-63
2021/12/01 04:20:11;;;;;;;0.37;0.20;;;5.30;99.90;;;;;;5135208;28;20467;-62
2021/12/01 04:22:41;;;;;;;0.40;0.23;;;5.30;99.90;;;;;;5136018;27;20494;-62
2021/12/01 04:25:09;;;;;;;0.40;0.20;;;5.40;99.90;;;;;;5136532;28;20443;-62
2021/12/01 04:27:37;;;;;;;0.93;0.23;;;5.40;99.90;;;;;;5136160;27;20452;-62
2021/12/01 04:30:09;;;;;;;0.53;0.20;;;5.40;99.90;;;;;;5136331;28;20928;-62
2021/12/01 04:32:36;;;;;;;0.40;0.20;;;5.40;99.90;;;;;;5126845;27;20491;-62
2021/12/01 04:35:06;;;;;;;0.70;0.20;;;5.30;99.90;;;;;;5136442;27;20443;-62
2021/12/01 04:37:34;;;;;;;0.40;0.20;;;5.30;99.90;;;;;;5135748;27;20550;-62
2021/12/01 04:40:05;;;;;;;2.30;0.20;;;5.30;99.90;;;;;;5136344;27;20734;-63
2021/12/01 04:42:32;;;;;;;0.30;0.20;;;5.30;99.90;;;;;;5135614;27;20460;-62
2021/12/01 04:45:00;;;;;;;0.40;0.20;;;5.30;99.90;;;;;;5136616;27;20778;-62
2021/12/01 04:47:29;;;;;;;0.40;0.20;;;5.40;99.90;;;;;;5133720;27;20440;-62
2021/12/01 04:49:58;;;;;;;0.47;0.20;;;5.40;99.90;;;;;;5135617;27;20431;-62
2021/12/01 04:52:25;;;;;;;0.40;0.20;;;5.40;99.90;;;;;;5135902;27;20447;-62
2021/12/01 04:54:52;;;;;;;0.50;0.30;;;5.40;99.90;;;;;;5137760;27;20479;-62
2021/12/01 04:57:21;;;;;;;0.63;0.30;;;5.40;99.90;;;;;;5137564;27;20496;-62
2021/12/01 04:59:49;;;;;;;0.50;0.20;;;5.40;99.90;;;;;;5138927;27;20497;-63
2021/12/01 05:02:16;;;;;;;0.57;0.20;;;5.40;99.90;;;;;;5137964;27;20450;-62
2021/12/01 05:04:43;;;;;;;0.30;0.10;;;5.50;99.90;;;;;;5129541;27;20424;-63
2021/12/01 05:07:11;;;;;;;0.40;0.10;;;5.50;99.90;;;;;;5127733;27;20441;-62
2021/12/01 05:09:38;;;;;;;0.47;0.20;;;5.50;99.90;;;;;;5137626;27;20444;-62
2021/12/01 05:12:07;;;;;;;0.40;0.20;;;5.50;99.90;;;;;;5138821;27;20448;-62
2021/12/01 05:14:38;;;;;;;0.30;0.10;;;5.60;99.90;;;;;;5137877;27;20583;-62
2021/12/01 05:17:06;;;;;;;0.40;0.20;;;5.60;99.90;;;;;;5137942;27;20501;-62
2021/12/01 05:19:34;;;;;;;0.40;0.13;;;5.60;99.90;;;;;;5139765;27;20448;-62
2021/12/01 05:22:02;;;;;;;0.30;0.20;;;5.60;99.90;;;;;;5139103;27;20443;-62
2021/12/01 05:24:29;;;;;;;0.50;0.20;;;5.60;99.90;;;;;;5138031;27;20444;-62
2021/12/01 05:26:57;;;;;;;0.30;0.10;;;5.70;99.90;;;;;;5137107;27;20436;-62
2021/12/01 05:29:24;;;;;;;0.30;0.10;;;5.70;99.90;;;;;;5136520;27;20495;-63
2021/12/01 05:31:54;;;;;;;1.13;0.20;;;5.80;99.90;;;;;;5136302;27;21020;-62
2021/12/01 05:34:21;;;;;;;0.37;0.13;;;5.80;99.90;;;;;;5135996;27;20483;-61
2021/12/01 05:36:48;;;;;;;0.77;0.20;;;5.80;99.90;;;;;;5137229;27;20447;-61
2021/12/01 05:39:16;;;;;;;0.40;0.10;;;5.90;99.90;;;;;;5137232;27;20459;-61
2021/12/01 05:41:44;;;;;;;0.40;0.20;;;5.90;99.90;;;;;;5139104;27;20952;-61
2021/12/01 05:44:11;;;;;;;0.40;0.20;;;6.10;99.90;;;;;;5138746;27;20452;-61
2021/12/01 05:46:39;;;;;;;0.40;0.20;;;6.20;99.90;;;;;;5138514;27;20496;-61
2021/12/01 05:49:07;;;;;;;0.40;0.10;;;6.20;99.90;;;;;;5138554;27;20456;-61
2021/12/01 05:51:35;;;;;;;0.30;0.10;;;6.10;99.90;;;;;;5137406;27;20436;-61
2021/12/01 05:54:03;;;;;;;0.33;0.10;;;6.10;99.90;;;;;;5136886;27;20533;-61
2021/12/01 05:56:31;;;;;;;0.30;0.10;;;6.20;99.90;;;;;;5136702;27;20451;-61
2021/12/01 05:58:59;;;;;;;0.30;0.10;;;6.20;99.90;;;;;;5137328;27;20535;-61
2021/12/01 06:01:26;;;;;;;1.10;0.10;;;6.20;99.90;;;;;;5138523;27;20447;-61
2021/12/01 06:03:54;;;;;;;0.30;0.10;;;6.30;99.90;;;;;;5138200;27;20457;-61
2021/12/01 06:06:25;;;;;;;0.40;0.10;;;6.30;99.90;;;;;;5137379;27;20505;-61
2021/12/01 06:08:53;;;;;;;0.20;0.10;;;6.40;99.90;;;;;;5138379;27;20447;-61
2021/12/01 06:11:22;;;;;;;0.30;0.10;;;6.40;99.90;;;;;;5137943;27;20440;-61
2021/12/01 06:13:52;;;;;;;0.30;0.10;;;6.40;99.90;;;;;;5135946;27;20479;-61
2021/12/01 06:16:22;;;;;;;0.40;0.20;;;6.50;99.90;;;;;;5135490;27;21085;-60
2021/12/01 06:18:50;;;;;;;0.30;0.10;;;6.60;99.90;;;;;;5135920;27;20958;-60
2021/12/01 06:21:17;;;;;;;0.30;0.10;;;6.70;99.90;;;;;;5134970;27;20467;-63
2021/12/01 06:23:46;;;;;;;0.30;0.10;;;6.70;99.90;;;;;;5136013;27;20451;-60
2021/12/01 06:26:14;;;;;;;0.30;0.10;;;6.70;99.90;;;;;;5135873;27;20871;-60
2021/12/01 06:28:41;;;;;;;0.40;0.10;;;6.70;99.90;;;;;;5136156;27;20750;-62
2021/12/01 06:31:10;;;;;;;0.30;0.10;;;6.70;99.90;;;;;;5135108;27;20500;-62
2021/12/01 06:33:38;;;;;;;0.30;0.10;;;6.70;99.90;;;;;;5119938;27;20484;-61
2021/12/01 06:36:06;;;;;;;0.37;0.10;;;6.70;99.90;;;;;;5117444;28;20803;-62
2021/12/01 06:38:33;;;;;;;0.20;0.10;;;6.70;99.90;;;;;;5114891;27;20478;-61
2021/12/01 06:41:02;;;;;;;0.30;0.10;;;6.70;99.90;;;;;;5131688;27;20467;-61
2021/12/01 06:43:29;;;;;;;0.60;0.10;;;6.70;99.90;;;;;;5106668;28;20453;-61
2021/12/01 06:45:57;;;;;;;0.50;0.10;;;6.70;99.90;;;;;;5105690;27;20510;-61
2021/12/01 06:48:24;;;;;;;0.40;0.10;;;6.80;99.90;;;;;;5106609;28;20624;-59
2021/12/01 06:50:52;;;;;;;0.30;0.10;;;6.80;99.90;;;;;;5109523;28;20454;-58
2021/12/01 06:53:20;;;;;;;0.30;0.10;;;6.80;99.90;;;;;;5105858;28;20456;-58
2021/12/01 06:55:47;;;;;;;0.30;0.10;;;6.90;99.90;;;;;;5098236;28;20449;-59
2021/12/01 06:58:16;;;;;;;0.30;0.10;;;6.90;99.90;;;;;;5092558;28;20449;-58
2021/12/01 07:00:43;;;;;;;0.50;0.10;;;6.90;99.90;;;;;;5093602;28;21150;-59
2021/12/01 07:03:11;;;;;;;0.30;0.10;;;6.90;99.90;;;;;;5098670;28;20465;-58
2021/12/01 07:05:41;;;;;;;0.20;0.10;;;6.90;99.90;;;;;;5099866;28;20441;-59
2021/12/01 07:08:08;;;;;;;0.63;0.10;;;6.90;99.90;;;;;;5110978;28;20506;-58
2021/12/01 07:10:36;;;;;;;0.60;0.10;;;7.00;99.90;;;;;;5111846;28;20450;-58
2021/12/01 07:13:03;;;;;;;0.30;0.10;;;7.10;99.90;;;;;;5110872;28;20457;-58
2021/12/01 07:15:32;;;;;;;1.33;0.17;;;7.00;99.90;;;;;;5105806;28;20495;-59
2021/12/01 07:18:00;;;;;;;0.20;0.10;;;7.00;99.90;;;;;;5107761;28;20816;-57
2021/12/01 07:20:27;;;;;;;0.20;0.10;;;7.00;99.90;;;;;;5112339;28;20440;-57
2021/12/01 07:22:55;;;;;;;0.60;0.10;;;7.00;99.90;;;;;;5104622;28;20837;-59
2021/12/01 07:25:22;;;;;;;0.30;0.10;;;7.00;99.90;;;;;;5097101;28;20970;-58
2021/12/01 07:27:49;;;;;;;0.27;0.10;;;7.10;99.90;;;;;;5093160;28;20454;-57
2021/12/01 07:30:17;;;;;;;0.30;0.10;;;7.10;99.90;;;;;;5093170;28;20502;-58
2021/12/01 07:32:46;;;;;;;0.30;0.10;;;7.20;99.90;;;;;;5096528;28;20761;-58
2021/12/01 07:35:13;;;;;;;0.40;0.10;;;7.20;99.90;;;;;;5111508;28;20479;-58
2021/12/01 07:37:40;;;;;;;0.30;0.10;;;7.30;99.90;;;;;;5115418;27;20459;-58
2021/12/01 07:40:09;;;;;;;0.30;0.10;;;7.20;99.90;;;;;;5132189;27;20799;-58
2021/12/01 07:42:37;;;;;;;0.27;0.10;;;7.20;99.90;;;;;;5132325;27;20451;-57
2021/12/01 07:45:05;;;;;;;0.30;0.10;;;7.20;99.90;;;;;;5132723;27;20443;-58
2021/12/01 07:47:35;;;;;;;0.80;0.17;;;7.20;99.90;;;;;;5129991;27;20778;-57
2021/12/01 07:50:05;;;;;;;0.30;0.10;;;7.20;99.90;;;;;;5128585;27;20879;-56
2021/12/01 07:52:32;;;;;;;0.40;0.10;;;7.30;99.90;;;;;;5131492;27;20516;-57
2021/12/01 07:55:00;;;;;;;1.33;0.10;;;7.40;99.90;;;;;;5128766;27;20521;-57
2021/12/01 07:57:27;;;;;;;0.37;0.10;;;7.40;99.90;;;;;;5131142;27;20452;-56
2021/12/01 07:59:55;;;;;;;0.40;0.10;;;7.50;99.90;;;;;;5132314;27;20455;-57
2021/12/01 08:02:22;;;;;;;0.20;0.10;;;7.50;99.90;;;;;;5132023;27;20787;-57
2021/12/01 08:04:49;;;;;;;0.30;0.10;;;7.50;99.90;;;;;;5130091;28;20506;-57
2021/12/01 08:07:21;;;;;;;0.30;0.10;;;7.50;99.90;;;;;;5131824;27;20529;-57
2021/12/01 08:09:49;;;;;;;1.90;0.10;;;7.50;99.90;;;;;;5132877;27;20448;-55
2021/12/01 08:12:16;;;;;;;0.20;0.10;;;7.50;99.90;;;;;;5133368;27;20637;-57
2021/12/01 08:14:43;;;;;;;0.27;0.10;;;7.50;99.90;;;;;;5134565;28;20479;-58
2021/12/01 08:17:11;;;;;;;0.30;0.10;;;7.60;99.90;;;;;;5133863;28;20444;-58
2021/12/01 08:19:38;;;;;;;0.30;0.10;;;7.60;99.90;;;;;;5134106;28;20462;-59
2021/12/01 08:22:08;;;;;;;0.53;0.20;;;7.60;99.90;;;;;;5134800;28;20505;-59
2021/12/01 08:24:38;;;;;;;0.50;0.10;;;7.60;99.90;;;;;;5134288;28;20491;-59
2021/12/01 08:27:05;;;;;;;0.30;0.10;;;7.60;99.90;;;;;;5131307;28;20444;-58
2021/12/01 08:29:33;;;;;;;0.40;0.10;;;7.60;99.90;;;;;;5136411;27;20798;-59
2021/12/01 08:32:00;;;;;;;0.27;0.10;;;7.70;99.90;;;;;;5135197;27;20459;-58
2021/12/01 08:34:28;;;;;;;0.40;0.20;;;7.80;99.90;;;;;;5135495;27;20482;-59
2021/12/01 08:36:55;;;;;;;4.23;0.20;;;8.00;99.90;;;;;;5135159;27;20809;-58
2021/12/01 08:39:22;;;;;;;0.30;0.10;;;8.10;99.90;;;;;;5135977;27;20571;-59
2021/12/01 08:41:51;;;;;;;2.23;0.20;;;8.10;99.90;;;;;;5136036;27;20447;-59
2021/12/01 08:44:20;;;;;;;6.70;0.87;;;8.00;99.90;;;;;;5147002;27;20522;-59
2021/12/01 08:46:47;;;;;;;0.70;0.40;;;8.00;99.90;;;;;;5157886;27;20475;-60
2021/12/01 08:49:14;;;;;;;0.63;0.20;;;8.00;99.90;;;;;;5157044;27;20454;-60
2021/12/01 08:51:42;;;;;;;0.40;0.10;;;8.00;99.90;;;;;;5154844;27;20805;-59
2021/12/01 08:54:13;;;;;;;0.47;0.10;;;8.10;99.90;;;;;;5142853;27;20491;-60
2021/12/01 08:56:41;;;;;;;0.30;0.10;;;8.10;99.90;;;;;;5132288;27;20471;-59
2021/12/01 08:59:09;;;;;;;0.50;0.27;;;8.10;99.90;;;;;;5132593;27;20712;-59
2021/12/01 09:01:37;;;;;;;0.30;0.10;;;8.20;99.90;;;;;;5126853;27;20449;-60
2021/12/01 09:04:05;;;;;;;0.40;0.10;;;8.20;99.90;;;;;;5114851;27;20561;-60
2021/12/01 09:06:33;;;;;;;0.30;0.10;;;8.30;99.90;;;;;;5136687;27;20209;-60
2021/12/01 09:09:00;;;;;;;0.40;0.10;;;8.40;99.90;;;;;;5128336;27;20455;-59
2021/12/01 09:11:28;;;;;;;0.30;0.10;;;8.50;99.90;;;;;;5138347;27;20444;-59
2021/12/01 09:13:56;;;;;;;0.20;0.10;;;8.60;99.90;;;;;;5135147;27;20532;-59
2021/12/01 09:16:27;;;;;;;0.53;0.10;;;8.70;99.90;;;;;;5154676;27;20665;-59
2021/12/01 09:18:55;;;;;;;0.70;0.10;;;8.80;99.90;;;;;;5154415;27;20465;-58
2021/12/01 09:21:23;;;;;;;0.20;0.10;;;9.00;99.90;;;;;;5147086;27;20451;-58
2021/12/01 09:23:50;;;;;;;0.30;0.10;;;9.10;99.90;;;;;;5133985;27;20463;-58
2021/12/01 09:26:19;;;;;;;0.30;0.10;;;9.20;99.90;;;;;;5135344;27;20440;-58
2021/12/01 09:28:46;;;;;;;0.40;0.10;;;9.40;99.90;;;;;;5135066;27;20450;-56
2021/12/01 09:31:14;;;;;;;0.20;0.10;;;9.40;99.90;;;;;;5135447;27;20450;-58
2021/12/01 09:33:43;;;;;;;0.30;0.10;;;9.40;99.90;;;;;;5134368;27;20475;-57
2021/12/01 09:36:11;;;;;;;0.30;0.10;;;9.20;99.90;;;;;;5134139;27;20483;-58
2021/12/01 09:38:38;;;;;;;0.27;0.10;;;9.20;99.90;;;;;;5131222;27;20529;-58
2021/12/01 09:41:06;;;;;;;0.30;0.10;;;9.10;99.90;;;;;;5131720;27;20440;-58
2021/12/01 09:43:34;;;;;;;0.30;0.17;;;9.10;99.90;;;;;;5135060;27;20452;-58
2021/12/01 09:46:05;;;;;;;0.30;0.10;;;9.10;99.90;;;;;;5134703;27;20436;-58
2021/12/01 09:48:33;;;;;;;0.30;0.10;;;9.10;99.90;;;;;;5122369;27;20451;-58
2021/12/01 09:51:03;;;;;;;0.30;0.10;;;9.10;99.90;;;;;;5133851;27;20465;-58
2021/12/01 09:53:32;;;;;;;0.30;0.10;;;9.10;99.90;;;;;;5135565;27;20443;-58
2021/12/01 09:56:00;;;;;;;0.30;0.10;;;9.10;99.90;;;;;;5136155;27;20482;-58
2021/12/01 09:58:31;;;;;;;0.30;0.10;;;9.00;99.90;;;;;;5134964;27;20459;-58
2021/12/01 10:01:00;;;;;;;0.20;0.00;;;9.10;99.90;;;;;;5134005;27;20732;-58
2021/12/01 10:03:28;;;;;;;0.30;0.10;;;9.10;99.90;;;;;;5135106;27;20440;-59
2021/12/01 10:06:03;;;;;;;0.40;0.10;;;9.10;99.90;;;;;;5135757;27;20439;-56
2021/12/01 10:08:34;;;;;;;0.30;0.10;;;9.10;99.90;;;;;;5132696;27;20443;-58
2021/12/01 10:11:07;;;;;;;0.30;0.10;;;9.20;99.90;;;;;;5120331;27;20522;-57
2021/12/01 10:13:37;;;;;;;0.20;0.10;;;9.20;99.90;;;;;;5123542;27;20455;-56
2021/12/01 10:16:07;;;;;;;0.30;0.10;;;9.30;99.90;;;;;;5132703;27;20468;-58
2021/12/01 10:18:40;;;;;;;0.30;0.10;;;9.40;99.90;;;;;;5124186;27;20453;-55
2021/12/01 10:21:10;;;;;;;0.30;0.10;;;9.40;99.90;;;;;;5129753;27;20962;-55
2021/12/01 10:23:44;;;;;;;0.30;0.20;;;9.40;99.90;;;;;;5132785;27;20454;-51
2021/12/01 10:26:15;;;;;;;0.30;0.20;;;9.40;99.90;;;;;;5134736;27;20901;-52
2021/12/01 10:28:44;;;;;;;0.20;0.10;;;9.50;99.90;;;;;;5135236;27;20517;-52
2021/12/01 10:31:13;;;;;;;0.20;0.10;;;9.50;99.90;;;;;;5136234;27;20444;-53
2021/12/01 10:33:41;;;;;;;0.30;0.10;;;9.50;99.90;;;;;;5137031;27;20719;-52
2021/12/01 10:36:11;;;;;;;0.27;0.10;;;9.60;99.90;;;;;;5136433;27;20480;-57
2021/12/01 10:38:45;;;;;;;0.80;0.23;;;9.60;99.90;;;;;;5134963;27;20455;-53
2021/12/01 10:41:16;;;;;;;0.30;0.10;;;9.70;99.90;;;;;;5134801;27;20535;-57
2021/12/01 10:43:47;;;;;;;0.30;0.10;;;9.90;99.90;;;;;;5134932;27;20891;-58
2021/12/01 10:46:17;;;;;;;0.40;0.10;;;9.90;99.90;;;;;;5134929;27;20252;-55
2021/12/01 10:48:47;;;;;;;0.30;0.10;;;10.00;99.90;;;;;;5136254;27;20456;-59
2021/12/01 10:51:33;;;;;;;0.53;0.10;;;10.00;99.90;;;;;;5134079;27;20444;-57
2021/12/01 10:54:02;;;;;;;0.20;0.10;;;10.00;99.90;;;;;;5132584;27;20479;-58
2021/12/01 10:56:29;;;;;;;0.40;0.10;;;9.90;99.90;;;;;;5135091;27;20619;-57
2021/12/01 10:59:09;;;;;;;0.30;0.10;;;9.90;99.90;;;;;;5133968;27;20760;-55
2021/12/01 11:01:37;;;;;;;0.30;0.10;;;9.80;99.90;;;;;;5125557;27;20447;-57
2021/12/01 11:04:04;;;;;;;0.30;0.10;;;9.90;99.90;;;;;;5133015;27;20456;-53
2021/12/01 11:06:38;;;;;;;0.30;0.10;;;9.90;99.90;;;;;;5134088;27;20444;-58
2021/12/01 11:09:07;;;;;;;0.30;0.10;;;9.90;99.90;;;;;;5133535;27;20455;-58
2021/12/01 11:11:41;;;;;;;0.40;0.10;;;10.00;99.90;;;;;;5132338;27;20447;-55
2021/12/01 11:14:12;;;;;;;0.30;0.10;;;10.00;99.90;;;;;;5133163;27;20455;-58
2021/12/01 11:16:42;;;;;;;0.30;0.10;;;10.10;99.90;;;;;;5132441;27;20875;-55
2021/12/01 11:19:10;;;;;;;0.30;0.10;;;10.10;99.90;;;;;;5123380;27;20771;-53
2021/12/01 11:21:39;;;;;;;0.30;0.10;;;10.00;99.90;;;;;;5130607;27;20444;-55
2021/12/01 11:24:10;;;;;;;0.30;0.10;;;9.90;99.90;;;;;;5129776;27;20455;-55
2021/12/01 11:26:39;;;;;;;0.40;0.10;;;10.00;99.90;;;;;;5132069;27;20440;-56
2021/12/01 11:29:09;;;;;;;0.30;0.10;;;9.90;99.90;;;;;;5132881;27;20458;-56
2021/12/01 11:31:40;;;;;;;0.60;0.20;;;9.80;99.90;;;;;;5132004;27;20485;-57
2021/12/01 11:34:10;;;;;;;0.40;0.20;;;9.80;99.90;;;;;;5132010;27;20893;-58
2021/12/01 11:36:40;;;;;;;0.30;0.10;;;9.90;99.90;;;;;;5130190;27;20564;-58
2021/12/01 11:39:11;;;;;;;0.20;0.10;;;9.90;99.90;;;;;;5130846;27;20458;-57
2021/12/01 11:41:42;;;;;;;0.20;0.10;;;9.90;99.90;;;;;;5133490;27;20479;-55
2021/12/01 11:44:11;;;;;;;0.40;0.10;;;10.00;99.90;;;;;;5133448;27;20452;-55
2021/12/01 11:46:39;;;;;;;0.30;0.10;;;10.10;99.90;;;;;;5134723;27;20448;-57
2021/12/01 11:49:09;;;;;;;0.30;0.10;;;10.30;99.90;;;;;;5133161;27;20452;-54
2021/12/01 11:51:46;;;;;;;1.27;0.17;;;10.30;99.90;;;;;;5131290;27;20997;-54
2021/12/01 11:54:19;;;;;;;0.23;0.10;;;10.30;99.90;;;;;;5131722;27;20458;-57
2021/12/01 11:56:53;;;;;;;0.30;0.10;;;10.40;99.90;;;;;;5131925;27;20475;-56
2021/12/01 11:59:23;;;;;;;0.20;0.10;;;10.30;99.90;;;;;;5130655;27;20791;-57
2021/12/01 12:01:56;;;;;;;0.40;0.10;;;10.30;99.90;;;;;;5129460;27;20463;-57
2021/12/01 12:04:43;;;;;;;1.53;0.10;;;10.30;99.90;;;;;;5128345;27;20461;-56
2021/12/01 12:07:16;;;;;;;0.30;0.10;;;10.40;99.90;;;;;;5127386;28;20519;-58
2021/12/01 12:10:05;;;;;;;0.40;0.10;;;10.40;99.90;;;;;;5131557;28;20735;-58
2021/12/01 12:12:46;;;;;;;0.30;0.10;;;10.40;99.90;;;;;;5133377;28;20971;-55
2021/12/01 12:15:45;;;;;;;0.37;0.20;;;10.40;99.90;;;;;;5133034;28;20483;-56
2021/12/01 12:21:41;;;;;;;0.30;0.10;;;10.50;99.90;;;;;;5089074;28;20487;-55
2021/12/01 12:24:27;;;;;;;0.37;0.20;;;10.30;99.90;;;;;;5132561;28;20473;-57
2021/12/01 12:27:02;;;;;;;0.40;0.10;;;10.30;99.90;;;;;;5116781;28;20578;-54
2021/12/01 12:29:31;;;;;;;0.30;0.10;;;10.20;99.90;;;;;;5111605;28;20513;-58
2021/12/01 12:32:18;;;;;;;0.30;0.10;;;10.20;99.90;;;;;;5110701;27;20440;-58
2021/12/01 12:34:51;;;;;;;0.37;0.10;;;10.20;99.90;;;;;;5112458;28;20452;-58
2021/12/01 12:37:23;;;;;;;0.40;0.20;;;10.20;99.90;;;;;;5110851;28;20538;-57
2021/12/01 12:39:51;;;;;;;0.40;0.10;;;10.10;99.90;;;;;;5109581;28;21034;-56
2021/12/01 12:42:22;;;;;;;0.30;0.10;;;10.00;99.90;;;;;;5110403;28;20732;-57
2021/12/01 12:44:52;;;;;;;0.50;0.10;;;10.10;99.90;;;;;;5109581;28;20458;-56
2021/12/01 12:47:22;;;;;;;0.30;0.10;;;10.00;99.90;;;;;;5108960;28;20494;-57
2021/12/01 12:49:51;;;;;;;0.43;0.20;;;9.90;99.90;;;;;;5109991;28;20449;-55
2021/12/01 12:52:33;;;;;;;0.30;0.10;;;9.90;99.90;;;;;;5110803;28;20445;-56
2021/12/01 12:55:02;;;;;;;0.30;0.20;;;9.80;99.90;;;;;;5111326;28;20460;-58
2021/12/01 12:57:49;;;;;;;0.40;0.10;;;9.90;99.90;;;;;;5111828;28;20476;-57
2021/12/01 13:00:17;;;;;;;0.30;0.10;;;9.80;99.90;;;;;;5111790;28;20536;-57
2021/12/01 13:02:45;;;;;;;1.23;0.20;;;9.60;99.90;;;;;;5111303;28;20445;-58
2021/12/01 13:05:12;;;;;;;0.50;0.20;;;9.60;99.90;;;;;;5111196;28;20448;-57
2021/12/01 13:07:48;;;;;;;0.30;0.10;;;9.50;99.90;;;;;;5111940;28;20446;-57
2021/12/01 13:10:24;;;;;;;0.40;0.20;;;9.40;99.90;;;;;;5110259;28;20937;-58
2021/12/01 13:13:02;;;;;;;0.40;0.20;;;9.30;99.90;;;;;;5106980;28;20452;-58